Whitehaven, United Kingdom
Current Conditions -  °F | °C
As of 5:20 PM on Wednesday 22 Oct 2014 (Local Time) from EGNC Reporting Station
Rain Showers Rain Showers  
Wind Chill: 52°   Ceiling: 1200
Heat Index: 52°   Visibility: 6mi
Dew Point: 50°   Wind: 17mph
Humidity: 94%   Direction: 230°SW
Pressure: 30.03"   Gusts: NA
Location:  54.55°N, 3.59°W
Report Text: EGNC 221620Z 23015KT 200V260 9000 VCSH SCT009 OVC012 11/10 Q1017
Loading
Personal Weather Stations






























Interactive Weather Map
Tropical Storm Tracking
New forecast layout! Learn more

10-Day Weather Forecast

Advertisements
Track Severe Weather on mobile